createdAt,value
2022-10-19T00:00:06.000Z,99.99
2022-10-19T00:01:06.000Z,99.99
2022-10-19T00:02:06.000Z,99.99
2022-10-19T00:03:06.000Z,99.99
2022-10-19T00:04:06.000Z,99.99
2022-10-19T00:05:05.000Z,99.99
2022-10-19T00:06:05.000Z,99.99
2022-10-19T00:07:05.000Z,99.99
2022-10-19T00:08:05.000Z,99.99
2022-10-19T00:09:05.000Z,99.99
2022-10-19T00:10:05.000Z,99.99
2022-10-19T00:11:05.000Z,99.99
2022-10-19T00:12:05.000Z,99.99
2022-10-19T00:13:05.000Z,99.99
2022-10-19T00:14:05.000Z,99.99
2022-10-19T00:15:05.000Z,99.99
2022-10-19T00:16:05.000Z,99.99
2022-10-19T00:17:05.000Z,99.99
2022-10-19T00:18:05.000Z,99.99
2022-10-19T00:19:05.000Z,99.99
2022-10-19T00:20:05.000Z,99.99
2022-10-19T00:21:05.000Z,99.99
2022-10-19T00:22:05.000Z,99.99
2022-10-19T00:23:05.000Z,99.99
2022-10-19T00:24:05.000Z,99.99
2022-10-19T00:25:05.000Z,99.99
2022-10-19T00:26:05.000Z,99.99
2022-10-19T00:27:05.000Z,99.99
2022-10-19T00:28:05.000Z,99.99
2022-10-19T00:29:05.000Z,99.99
2022-10-19T00:30:05.000Z,99.99
2022-10-19T00:31:05.000Z,99.99
2022-10-19T00:32:05.000Z,99.99
2022-10-19T00:33:05.000Z,99.99
2022-10-19T00:34:05.000Z,99.99
2022-10-19T00:35:05.000Z,99.99
2022-10-19T00:36:05.000Z,99.99
2022-10-19T00:37:05.000Z,99.99
2022-10-19T00:38:05.000Z,99.99
2022-10-19T00:39:05.000Z,99.99
2022-10-19T00:40:05.000Z,99.99
2022-10-19T00:41:05.000Z,99.99
2022-10-19T00:42:05.000Z,99.99
2022-10-19T00:43:05.000Z,99.99
2022-10-19T00:44:05.000Z,99.99
2022-10-19T00:45:05.000Z,99.99
2022-10-19T00:46:05.000Z,99.99
2022-10-19T00:47:05.000Z,99.99
2022-10-19T00:48:05.000Z,99.99
2022-10-19T00:49:05.000Z,99.99
2022-10-19T00:50:05.000Z,99.99
2022-10-19T00:51:05.000Z,99.99
2022-10-19T00:52:05.000Z,99.99
2022-10-19T00:53:05.000Z,99.99
2022-10-19T00:54:05.000Z,99.99
2022-10-19T00:55:05.000Z,99.99
2022-10-19T00:56:05.000Z,99.99
2022-10-19T00:57:05.000Z,99.99
2022-10-19T00:58:05.000Z,99.99
2022-10-19T00:59:05.000Z,99.99
2022-10-19T01:00:05.000Z,99.99
2022-10-19T01:01:05.000Z,99.99
2022-10-19T01:02:05.000Z,99.99
2022-10-19T01:03:05.000Z,99.99
2022-10-19T01:04:05.000Z,99.99
2022-10-19T01:05:05.000Z,99.99
2022-10-19T01:06:05.000Z,99.99
2022-10-19T01:07:05.000Z,99.99
2022-10-19T01:08:05.000Z,99.99
2022-10-19T01:09:05.000Z,99.99
2022-10-19T01:10:05.000Z,99.99
2022-10-19T01:11:05.000Z,99.99
2022-10-19T01:12:05.000Z,99.99
2022-10-19T01:13:05.000Z,99.99
2022-10-19T01:14:05.000Z,99.99
2022-10-19T01:15:05.000Z,99.99
2022-10-19T01:16:05.000Z,99.99
2022-10-19T01:17:05.000Z,99.99
2022-10-19T01:18:04.000Z,99.99
2022-10-19T01:19:04.000Z,99.99
2022-10-19T01:20:04.000Z,99.99
2022-10-19T01:21:04.000Z,99.99
2022-10-19T01:22:04.000Z,99.99
2022-10-19T01:23:04.000Z,99.99
2022-10-19T01:24:04.000Z,99.99
2022-10-19T01:25:04.000Z,99.99
2022-10-19T01:26:04.000Z,99.99
2022-10-19T01:27:04.000Z,99.99
2022-10-19T01:28:04.000Z,99.99
2022-10-19T01:29:04.000Z,99.99
2022-10-19T01:30:04.000Z,99.99
2022-10-19T01:31:04.000Z,99.99
2022-10-19T01:32:04.000Z,99.99
2022-10-19T01:33:04.000Z,99.99
2022-10-19T01:34:04.000Z,99.99
2022-10-19T01:35:04.000Z,99.99
2022-10-19T01:36:04.000Z,99.99
2022-10-19T01:37:04.000Z,99.99
2022-10-19T01:38:04.000Z,99.99
2022-10-19T01:39:04.000Z,99.99
2022-10-19T01:40:04.000Z,99.99
2022-10-19T01:41:04.000Z,99.99
2022-10-19T01:42:04.000Z,99.99
2022-10-19T01:43:04.000Z,99.99
2022-10-19T01:44:04.000Z,99.99
2022-10-19T01:45:04.000Z,99.99
2022-10-19T01:46:04.000Z,99.99
2022-10-19T01:47:04.000Z,99.99
2022-10-19T01:48:04.000Z,99.99
2022-10-19T01:49:04.000Z,99.99
2022-10-19T01:50:04.000Z,99.99
2022-10-19T01:51:04.000Z,99.99
2022-10-19T01:52:04.000Z,99.99
2022-10-19T01:53:04.000Z,99.99
2022-10-19T01:54:04.000Z,99.99
2022-10-19T01:55:04.000Z,99.99
2022-10-19T01:56:04.000Z,99.99
2022-10-19T01:57:04.000Z,99.99
2022-10-19T01:58:04.000Z,99.99
2022-10-19T01:59:04.000Z,99.99
2022-10-19T02:00:04.000Z,99.99
2022-10-19T02:01:04.000Z,99.99
2022-10-19T02:02:04.000Z,99.99
2022-10-19T02:03:04.000Z,99.99
2022-10-19T02:04:04.000Z,99.99
2022-10-19T02:05:04.000Z,99.99
2022-10-19T02:06:04.000Z,99.99
2022-10-19T02:07:04.000Z,99.99
2022-10-19T02:08:04.000Z,99.99
2022-10-19T02:09:04.000Z,99.99
2022-10-19T02:10:04.000Z,99.99
2022-10-19T02:11:04.000Z,99.99
2022-10-19T02:12:04.000Z,99.99
2022-10-19T02:13:04.000Z,99.99
2022-10-19T02:14:04.000Z,99.99
2022-10-19T02:15:04.000Z,99.99
2022-10-19T02:16:04.000Z,99.99
2022-10-19T02:17:04.000Z,99.99
2022-10-19T02:18:04.000Z,99.99
2022-10-19T02:19:04.000Z,99.99
2022-10-19T02:20:04.000Z,99.99
2022-10-19T02:21:04.000Z,99.99
2022-10-19T02:22:04.000Z,99.99
2022-10-19T02:23:04.000Z,99.99
2022-10-19T02:24:04.000Z,99.99
2022-10-19T02:25:04.000Z,99.99
2022-10-19T02:26:04.000Z,99.99
2022-10-19T02:27:04.000Z,99.99
2022-10-19T02:28:04.000Z,99.99
2022-10-19T02:29:04.000Z,99.99
2022-10-19T02:30:03.000Z,99.99
2022-10-19T02:31:03.000Z,99.99
2022-10-19T02:32:03.000Z,99.99
2022-10-19T02:33:03.000Z,99.99
2022-10-19T02:34:03.000Z,99.99
2022-10-19T02:35:03.000Z,99.99
2022-10-19T02:36:03.000Z,99.99
2022-10-19T02:37:03.000Z,99.99
2022-10-19T02:38:03.000Z,99.99
2022-10-19T02:39:03.000Z,99.99
2022-10-19T02:40:03.000Z,99.99
2022-10-19T02:41:03.000Z,99.99
2022-10-19T02:42:03.000Z,99.99
2022-10-19T02:43:03.000Z,99.99
2022-10-19T02:44:03.000Z,99.99
2022-10-19T02:45:03.000Z,99.99
2022-10-19T02:46:03.000Z,99.99
2022-10-19T02:47:03.000Z,99.99
2022-10-19T02:48:03.000Z,99.99
2022-10-19T02:49:03.000Z,99.99
2022-10-19T02:50:03.000Z,99.99
2022-10-19T02:51:03.000Z,99.99
2022-10-19T02:52:03.000Z,99.99
2022-10-19T02:53:03.000Z,99.99
2022-10-19T02:54:03.000Z,99.99
2022-10-19T02:55:03.000Z,99.99
2022-10-19T02:56:03.000Z,99.99
2022-10-19T02:57:03.000Z,99.99
2022-10-19T02:58:03.000Z,99.99
2022-10-19T02:59:03.000Z,99.99
2022-10-19T03:00:03.000Z,99.99
2022-10-19T03:01:03.000Z,99.99
2022-10-19T03:02:03.000Z,99.99
2022-10-19T03:03:03.000Z,99.99
2022-10-19T03:04:03.000Z,99.99
2022-10-19T03:05:03.000Z,99.99
2022-10-19T03:06:03.000Z,99.99
2022-10-19T03:07:03.000Z,99.99
2022-10-19T03:08:03.000Z,99.99
2022-10-19T03:09:03.000Z,99.99
2022-10-19T03:10:03.000Z,99.99
2022-10-19T03:11:03.000Z,99.99
2022-10-19T03:12:03.000Z,99.99
2022-10-19T03:13:03.000Z,99.99
2022-10-19T03:14:03.000Z,99.99
2022-10-19T03:15:03.000Z,99.99
2022-10-19T03:16:03.000Z,99.99
2022-10-19T03:17:03.000Z,99.99
2022-10-19T03:18:03.000Z,99.99
2022-10-19T03:19:03.000Z,99.99
2022-10-19T03:20:03.000Z,99.99
2022-10-19T03:21:03.000Z,99.99
2022-10-19T03:22:03.000Z,99.99
2022-10-19T03:23:03.000Z,99.99
2022-10-19T03:24:03.000Z,99.99
2022-10-19T03:25:03.000Z,99.99
2022-10-19T03:26:03.000Z,99.99
2022-10-19T03:27:03.000Z,99.99
2022-10-19T03:28:03.000Z,99.99
2022-10-19T03:29:03.000Z,99.99
2022-10-19T03:30:03.000Z,99.99
2022-10-19T03:31:03.000Z,99.99
2022-10-19T03:32:03.000Z,99.99
2022-10-19T03:33:03.000Z,99.99
2022-10-19T03:34:03.000Z,99.99
2022-10-19T03:35:03.000Z,99.99
2022-10-19T03:36:03.000Z,99.99
2022-10-19T03:37:03.000Z,99.99
2022-10-19T03:38:03.000Z,99.99
2022-10-19T03:39:03.000Z,99.99
2022-10-19T03:40:03.000Z,99.99
2022-10-19T03:41:03.000Z,99.99
2022-10-19T03:42:03.000Z,99.99
2022-10-19T03:43:02.000Z,99.99
2022-10-19T03:44:02.000Z,99.99
2022-10-19T03:45:02.000Z,99.99
2022-10-19T03:46:02.000Z,99.99
2022-10-19T03:47:02.000Z,99.99
2022-10-19T03:48:02.000Z,99.99
2022-10-19T03:49:02.000Z,99.99
2022-10-19T03:50:02.000Z,99.99
2022-10-19T03:51:02.000Z,99.99
2022-10-19T03:52:02.000Z,99.99
2022-10-19T03:53:02.000Z,99.99
2022-10-19T03:54:02.000Z,99.99
2022-10-19T03:55:02.000Z,99.99
2022-10-19T03:56:02.000Z,99.99
2022-10-19T03:57:02.000Z,99.99
2022-10-19T03:58:02.000Z,99.99
2022-10-19T03:59:02.000Z,99.99
2022-10-19T04:00:02.000Z,99.99
2022-10-19T04:01:02.000Z,99.99
2022-10-19T04:02:02.000Z,99.99
2022-10-19T04:03:02.000Z,99.99
2022-10-19T04:04:02.000Z,99.99
2022-10-19T04:05:02.000Z,99.99
2022-10-19T04:06:02.000Z,99.99
2022-10-19T04:07:02.000Z,99.99
2022-10-19T04:08:02.000Z,99.99
2022-10-19T04:09:02.000Z,99.99
2022-10-19T04:10:02.000Z,99.99
2022-10-19T04:11:02.000Z,99.99
2022-10-19T04:12:02.000Z,99.99
2022-10-19T04:13:02.000Z,99.99
2022-10-19T04:14:02.000Z,99.99
2022-10-19T04:15:02.000Z,99.99
2022-10-19T04:16:02.000Z,99.99
2022-10-19T04:17:02.000Z,99.99
2022-10-19T04:18:02.000Z,99.99
2022-10-19T04:19:02.000Z,99.99
2022-10-19T04:20:02.000Z,99.99
2022-10-19T04:21:02.000Z,99.99
2022-10-19T04:22:02.000Z,99.99
2022-10-19T04:23:02.000Z,99.99
2022-10-19T04:24:02.000Z,99.99
2022-10-19T04:25:02.000Z,99.99
2022-10-19T04:26:02.000Z,99.99
2022-10-19T04:27:02.000Z,99.99
2022-10-19T04:28:02.000Z,99.99
2022-10-19T04:29:02.000Z,99.99
2022-10-19T04:30:02.000Z,99.99
2022-10-19T04:31:02.000Z,99.99
2022-10-19T04:32:02.000Z,99.99
2022-10-19T04:33:02.000Z,99.99
2022-10-19T04:34:02.000Z,99.99
2022-10-19T04:35:02.000Z,99.99
2022-10-19T04:36:02.000Z,99.99
2022-10-19T04:37:02.000Z,99.99
2022-10-19T04:38:02.000Z,99.99
2022-10-19T04:39:02.000Z,99.99
2022-10-19T04:40:02.000Z,99.99
2022-10-19T04:41:02.000Z,99.99
2022-10-19T04:42:02.000Z,99.99
2022-10-19T04:43:02.000Z,99.99
2022-10-19T04:44:02.000Z,99.99
2022-10-19T04:45:02.000Z,99.99
2022-10-19T04:46:02.000Z,99.99
2022-10-19T04:47:02.000Z,99.99
2022-10-19T04:48:02.000Z,99.99
2022-10-19T04:49:02.000Z,99.99
2022-10-19T04:50:02.000Z,99.99
2022-10-19T04:51:02.000Z,99.99
2022-10-19T04:52:02.000Z,99.99
2022-10-19T04:53:02.000Z,99.99
2022-10-19T04:54:02.000Z,99.99
2022-10-19T04:55:01.000Z,99.99
2022-10-19T04:56:01.000Z,99.99
2022-10-19T04:57:01.000Z,99.99
2022-10-19T04:58:01.000Z,99.99
2022-10-19T04:59:01.000Z,99.99
2022-10-19T05:00:01.000Z,99.99
2022-10-19T05:01:01.000Z,99.99
2022-10-19T05:02:01.000Z,99.99
2022-10-19T05:03:01.000Z,99.99
2022-10-19T05:04:01.000Z,99.99
2022-10-19T05:05:01.000Z,99.99
2022-10-19T05:06:01.000Z,99.99
2022-10-19T05:07:01.000Z,99.99
2022-10-19T05:08:01.000Z,99.99
2022-10-19T05:09:01.000Z,99.99
2022-10-19T05:10:01.000Z,99.99
2022-10-19T05:11:01.000Z,99.99
2022-10-19T05:12:01.000Z,99.99
2022-10-19T05:13:01.000Z,99.99
2022-10-19T05:14:01.000Z,99.99
2022-10-19T05:15:01.000Z,99.99
2022-10-19T05:16:01.000Z,99.99
2022-10-19T05:17:01.000Z,99.99
2022-10-19T05:18:01.000Z,99.99
2022-10-19T05:19:01.000Z,99.99
2022-10-19T05:20:01.000Z,99.99
2022-10-19T05:21:01.000Z,99.99
2022-10-19T05:22:01.000Z,99.99
2022-10-19T05:23:01.000Z,99.99
2022-10-19T05:24:01.000Z,99.99
2022-10-19T05:25:01.000Z,99.99
2022-10-19T05:26:01.000Z,99.99
2022-10-19T05:27:01.000Z,99.99
2022-10-19T05:28:01.000Z,99.99
2022-10-19T05:29:01.000Z,99.99
2022-10-19T05:30:01.000Z,99.99
2022-10-19T05:31:01.000Z,99.99
2022-10-19T05:32:01.000Z,99.99
2022-10-19T05:33:01.000Z,99.99
2022-10-19T05:34:01.000Z,99.99
2022-10-19T05:35:01.000Z,99.99
2022-10-19T05:36:01.000Z,99.99
2022-10-19T05:37:01.000Z,99.99
2022-10-19T05:38:01.000Z,99.99
2022-10-19T05:39:01.000Z,99.99
2022-10-19T05:40:01.000Z,99.99
2022-10-19T05:41:01.000Z,99.99
2022-10-19T05:42:01.000Z,99.99
2022-10-19T05:43:01.000Z,99.99
2022-10-19T05:44:01.000Z,99.99
2022-10-19T05:45:01.000Z,99.99
2022-10-19T05:46:01.000Z,99.99
2022-10-19T05:47:01.000Z,99.99
2022-10-19T05:48:01.000Z,99.99
2022-10-19T05:49:01.000Z,99.99
2022-10-19T05:50:01.000Z,99.99
2022-10-19T05:51:01.000Z,99.99
2022-10-19T05:52:01.000Z,99.99
2022-10-19T05:53:01.000Z,99.99
2022-10-19T05:54:01.000Z,99.99
2022-10-19T05:55:01.000Z,99.99
2022-10-19T05:56:01.000Z,99.99
2022-10-19T05:57:01.000Z,99.99
2022-10-19T05:58:01.000Z,99.99
2022-10-19T05:59:01.000Z,99.99
2022-10-19T06:00:01.000Z,99.99
2022-10-19T06:01:01.000Z,99.99
2022-10-19T06:02:01.000Z,99.99
2022-10-19T06:03:01.000Z,99.99
2022-10-19T06:04:01.000Z,99.99
2022-10-19T06:05:01.000Z,99.99
2022-10-19T06:06:01.000Z,99.99
2022-10-19T06:07:00.000Z,99.99
2022-10-19T06:08:00.000Z,99.99
2022-10-19T06:09:00.000Z,99.99
2022-10-19T06:10:00.000Z,99.99
2022-10-19T06:11:00.000Z,99.99
2022-10-19T06:12:00.000Z,99.99
2022-10-19T06:13:00.000Z,99.99
2022-10-19T06:14:00.000Z,99.99
2022-10-19T06:15:00.000Z,99.99
2022-10-19T06:16:00.000Z,99.99
2022-10-19T06:17:00.000Z,99.99
2022-10-19T06:18:00.000Z,99.99
2022-10-19T06:19:00.000Z,99.99
2022-10-19T06:20:00.000Z,99.99
2022-10-19T06:21:00.000Z,99.99
2022-10-19T06:22:00.000Z,99.99
2022-10-19T06:23:00.000Z,99.99
2022-10-19T06:24:00.000Z,99.99
2022-10-19T06:25:00.000Z,99.99
2022-10-19T06:26:00.000Z,99.99
2022-10-19T06:27:00.000Z,99.99
2022-10-19T06:28:00.000Z,99.99
2022-10-19T06:29:00.000Z,99.99
2022-10-19T06:30:00.000Z,99.99
2022-10-19T06:31:00.000Z,99.99
2022-10-19T06:32:00.000Z,99.99
2022-10-19T06:33:00.000Z,99.99
2022-10-19T06:34:00.000Z,99.99
2022-10-19T06:35:00.000Z,99.99
2022-10-19T06:36:00.000Z,99.99
2022-10-19T06:37:00.000Z,99.99
2022-10-19T06:38:00.000Z,99.99
2022-10-19T06:39:00.000Z,99.99
2022-10-19T06:40:00.000Z,99.99
2022-10-19T06:41:00.000Z,99.99
2022-10-19T06:42:00.000Z,99.99
2022-10-19T06:43:00.000Z,99.99
2022-10-19T06:44:00.000Z,99.99
2022-10-19T06:45:00.000Z,99.99
2022-10-19T06:46:00.000Z,99.99
2022-10-19T06:47:00.000Z,99.99
2022-10-19T06:48:00.000Z,99.99
2022-10-19T06:49:00.000Z,99.99
2022-10-19T06:50:00.000Z,99.99
2022-10-19T06:51:00.000Z,99.99
2022-10-19T06:52:00.000Z,99.99
2022-10-19T06:53:00.000Z,99.99
2022-10-19T06:54:00.000Z,99.99
2022-10-19T06:55:00.000Z,99.99
2022-10-19T06:56:00.000Z,99.99
2022-10-19T06:57:00.000Z,99.99
2022-10-19T06:58:00.000Z,99.99
2022-10-19T06:59:00.000Z,99.99
2022-10-19T07:00:00.000Z,99.99
2022-10-19T07:01:00.000Z,99.99
2022-10-19T07:02:00.000Z,99.99
2022-10-19T07:03:00.000Z,99.99
2022-10-19T07:04:00.000Z,99.99
2022-10-19T07:05:00.000Z,99.99
2022-10-19T07:06:00.000Z,99.99
2022-10-19T07:07:00.000Z,99.99
2022-10-19T07:08:00.000Z,99.99
2022-10-19T07:09:00.000Z,99.99
2022-10-19T07:10:00.000Z,99.99
2022-10-19T07:11:00.000Z,99.99
2022-10-19T07:12:00.000Z,99.99
2022-10-19T07:13:00.000Z,99.99
2022-10-19T07:14:00.000Z,99.99
2022-10-19T07:15:00.000Z,99.99
2022-10-19T07:16:00.000Z,99.99
2022-10-19T07:17:00.000Z,99.99
2022-10-19T07:18:00.000Z,99.99
2022-10-19T07:18:59.000Z,99.99
2022-10-19T07:19:59.000Z,99.99
2022-10-19T07:20:59.000Z,99.99
2022-10-19T07:21:59.000Z,99.99
2022-10-19T07:22:59.000Z,99.99
2022-10-19T07:23:59.000Z,99.99
2022-10-19T07:24:59.000Z,99.99
2022-10-19T07:25:59.000Z,99.99
2022-10-19T07:26:59.000Z,99.99
2022-10-19T07:27:59.000Z,99.99
2022-10-19T07:28:59.000Z,99.99
2022-10-19T07:29:59.000Z,99.99
2022-10-19T07:30:59.000Z,99.99
2022-10-19T07:31:59.000Z,99.99
2022-10-19T07:32:59.000Z,99.99
2022-10-19T07:33:59.000Z,99.99
2022-10-19T07:34:59.000Z,99.99
2022-10-19T07:35:59.000Z,99.99
2022-10-19T07:36:59.000Z,99.99
2022-10-19T07:37:59.000Z,99.99
2022-10-19T07:38:59.000Z,99.99
2022-10-19T07:39:59.000Z,99.99
2022-10-19T07:40:59.000Z,99.99
2022-10-19T07:41:59.000Z,99.99
2022-10-19T07:42:59.000Z,99.99
2022-10-19T07:43:59.000Z,99.99
2022-10-19T07:44:59.000Z,99.99
2022-10-19T07:45:59.000Z,99.99
2022-10-19T07:46:59.000Z,99.99
2022-10-19T07:47:59.000Z,99.99
2022-10-19T07:48:59.000Z,99.99
2022-10-19T07:49:59.000Z,99.99
2022-10-19T07:50:59.000Z,99.99
2022-10-19T07:51:59.000Z,99.99
2022-10-19T07:52:59.000Z,99.99
2022-10-19T07:53:59.000Z,99.99
2022-10-19T07:54:59.000Z,99.99
2022-10-19T07:55:59.000Z,99.99
2022-10-19T07:56:59.000Z,99.99
2022-10-19T07:57:59.000Z,99.99
2022-10-19T07:58:59.000Z,99.99
2022-10-19T07:58:59.000Z,99.99
2022-10-19T07:59:59.000Z,99.99
2022-10-19T07:59:59.000Z,99.99
2022-10-19T08:00:59.000Z,99.99
2022-10-19T08:00:59.000Z,99.99
2022-10-19T08:01:59.000Z,99.99
2022-10-19T08:01:59.000Z,99.99
2022-10-19T08:02:59.000Z,99.99
2022-10-19T08:02:59.000Z,99.99
2022-10-19T08:03:59.000Z,99.99
2022-10-19T08:03:59.000Z,99.99
2022-10-19T08:04:59.000Z,99.99
2022-10-19T08:04:59.000Z,99.99
2022-10-19T08:05:59.000Z,99.99
2022-10-19T08:05:59.000Z,99.99
2022-10-19T08:06:59.000Z,99.99
2022-10-19T08:06:59.000Z,99.99
2022-10-19T08:07:59.000Z,99.99
2022-10-19T08:07:59.000Z,99.99
2022-10-19T08:08:59.000Z,99.99
2022-10-19T08:09:59.000Z,99.99
2022-10-19T08:10:59.000Z,99.99
2022-10-19T08:11:59.000Z,99.99
2022-10-19T08:12:59.000Z,99.99
2022-10-19T08:13:59.000Z,99.99
2022-10-19T08:14:59.000Z,99.99
2022-10-19T08:15:59.000Z,99.99
2022-10-19T08:16:59.000Z,99.99
2022-10-19T08:17:59.000Z,99.93
2022-10-19T08:18:59.000Z,99.99
2022-10-19T08:19:59.000Z,99.99
2022-10-19T08:20:59.000Z,99.99
2022-10-19T08:21:59.000Z,99.99
2022-10-19T08:22:59.000Z,99.99
2022-10-19T08:23:59.000Z,99.99
2022-10-19T08:24:59.000Z,99.99
2022-10-19T08:25:59.000Z,99.99
2022-10-19T08:26:59.000Z,99.99
2022-10-19T08:27:59.000Z,99.99
2022-10-19T08:28:59.000Z,99.99
2022-10-19T08:29:59.000Z,99.99
2022-10-19T08:30:59.000Z,99.99
2022-10-19T08:31:58.000Z,99.99
2022-10-19T08:32:58.000Z,99.99
2022-10-19T08:33:58.000Z,99.99
2022-10-19T08:34:58.000Z,99.99
2022-10-19T08:35:58.000Z,99.99
2022-10-19T08:36:58.000Z,99.99
2022-10-19T08:37:58.000Z,99.99
2022-10-19T08:38:58.000Z,99.99
2022-10-19T08:39:58.000Z,99.99
2022-10-19T08:40:58.000Z,99.99
2022-10-19T08:41:58.000Z,99.99
2022-10-19T08:42:58.000Z,99.99
2022-10-19T08:43:58.000Z,99.99
2022-10-19T08:44:58.000Z,99.99
2022-10-19T08:45:58.000Z,99.99
2022-10-19T08:46:58.000Z,99.99
2022-10-19T08:47:58.000Z,99.99
2022-10-19T08:48:58.000Z,99.99
2022-10-19T08:49:58.000Z,99.99
2022-10-19T08:50:58.000Z,99.89
2022-10-19T08:51:58.000Z,99.13
2022-10-19T08:52:58.000Z,97.70
2022-10-19T08:53:58.000Z,98.61
2022-10-19T08:54:58.000Z,98.93
2022-10-19T08:55:58.000Z,98.77
2022-10-19T08:56:58.000Z,97.86
2022-10-19T08:57:58.000Z,96.53
2022-10-19T08:58:58.000Z,96.84
2022-10-19T08:59:58.000Z,96.53
2022-10-19T09:00:58.000Z,95.00
2022-10-19T09:01:58.000Z,95.10
2022-10-19T09:02:58.000Z,94.85
2022-10-19T09:03:58.000Z,94.95
2022-10-19T09:04:58.000Z,95.26
2022-10-19T09:05:58.000Z,94.14
2022-10-19T09:06:58.000Z,94.24
2022-10-19T09:07:58.000Z,94.45
2022-10-19T09:08:58.000Z,95.06
2022-10-19T09:09:58.000Z,95.36
2022-10-19T09:10:58.000Z,96.08
2022-10-19T09:11:58.000Z,96.34
2022-10-19T09:12:58.000Z,94.91
2022-10-19T09:13:58.000Z,95.32
2022-10-19T09:14:58.000Z,95.83
2022-10-19T09:15:58.000Z,95.68
2022-10-19T09:16:58.000Z,93.33
2022-10-19T09:17:58.000Z,93.54
2022-10-19T09:18:58.000Z,93.13
2022-10-19T09:19:58.000Z,92.52
2022-10-19T09:20:58.000Z,93.50
2022-10-19T09:21:58.000Z,92.18
2022-10-19T09:22:58.000Z,91.56
2022-10-19T09:23:58.000Z,91.62
2022-10-19T09:24:58.000Z,91.72
2022-10-19T09:25:58.000Z,90.70
2022-10-19T09:26:58.000Z,91.83
2022-10-19T09:27:58.000Z,92.70
2022-10-19T09:28:58.000Z,88.63
2022-10-19T09:29:58.000Z,89.44
2022-10-19T09:30:58.000Z,89.03
2022-10-19T09:31:58.000Z,88.12
2022-10-19T09:32:58.000Z,87.67
2022-10-19T09:33:58.000Z,86.96
2022-10-19T09:34:58.000Z,88.08
2022-10-19T09:35:58.000Z,88.89
2022-10-19T09:36:58.000Z,88.39
2022-10-19T09:37:58.000Z,88.65
2022-10-19T09:38:58.000Z,87.84
2022-10-19T09:39:58.000Z,88.04
2022-10-19T09:40:58.000Z,86.82
2022-10-19T09:41:58.000Z,86.61
2022-10-19T09:42:58.000Z,87.43
2022-10-19T09:43:58.000Z,88.54
2022-10-19T09:44:57.000Z,86.00
2022-10-19T09:45:57.000Z,87.63
2022-10-19T09:46:57.000Z,88.24
2022-10-19T09:47:57.000Z,87.23
2022-10-19T09:48:57.000Z,86.61
2022-10-19T09:49:57.000Z,84.88
2022-10-19T09:50:57.000Z,85.49
2022-10-19T09:51:57.000Z,86.71
2022-10-19T09:52:57.000Z,86.00
2022-10-19T09:53:57.000Z,86.92
2022-10-19T09:54:57.000Z,87.02
2022-10-19T09:55:57.000Z,84.68
2022-10-19T09:56:57.000Z,83.97
2022-10-19T09:57:57.000Z,85.39
2022-10-19T09:58:57.000Z,86.00
2022-10-19T09:59:57.000Z,86.21
2022-10-19T10:00:57.000Z,86.92
2022-10-19T10:01:57.000Z,87.32
2022-10-19T10:02:57.000Z,88.04
2022-10-19T10:03:57.000Z,86.41
2022-10-19T10:04:57.000Z,86.61
2022-10-19T10:05:57.000Z,86.92
2022-10-19T10:06:57.000Z,86.25
2022-10-19T10:07:57.000Z,85.84
2022-10-19T10:08:57.000Z,86.35
2022-10-19T10:09:57.000Z,87.26
2022-10-19T10:10:57.000Z,88.08
2022-10-19T10:11:57.000Z,88.48
2022-10-19T10:12:57.000Z,87.87
2022-10-19T10:13:57.000Z,87.87
2022-10-19T10:14:57.000Z,87.16
2022-10-19T10:15:57.000Z,87.71
2022-10-19T10:16:57.000Z,87.10
2022-10-19T10:17:57.000Z,86.90
2022-10-19T10:18:57.000Z,85.88
2022-10-19T10:19:57.000Z,85.47
2022-10-19T10:20:57.000Z,83.64
2022-10-19T10:21:57.000Z,85.17
2022-10-19T10:22:57.000Z,84.97
2022-10-19T10:23:57.000Z,84.05
2022-10-19T10:24:57.000Z,83.95
2022-10-19T10:25:57.000Z,85.37
2022-10-19T10:26:57.000Z,85.98
2022-10-19T10:27:57.000Z,86.80
2022-10-19T10:28:57.000Z,87.20
2022-10-19T10:28:57.000Z,87.20
2022-10-19T10:29:57.000Z,86.49
2022-10-19T10:29:57.000Z,86.49
2022-10-19T10:30:57.000Z,85.88
2022-10-19T10:30:57.000Z,85.88
2022-10-19T10:31:57.000Z,86.49
2022-10-19T10:31:57.000Z,86.49
2022-10-19T10:32:57.000Z,87.71
2022-10-19T10:32:57.000Z,87.71
2022-10-19T10:33:57.000Z,87.71
2022-10-19T10:34:57.000Z,85.98
2022-10-19T10:35:57.000Z,86.80
2022-10-19T10:36:57.000Z,87.10
2022-10-19T10:37:57.000Z,85.78
2022-10-19T10:38:57.000Z,85.58
2022-10-19T10:39:57.000Z,86.39
2022-10-19T10:40:57.000Z,85.47
2022-10-19T10:41:57.000Z,84.45
2022-10-19T10:42:57.000Z,83.64
2022-10-19T10:43:57.000Z,84.66
2022-10-19T10:44:57.000Z,83.03
2022-10-19T10:45:57.000Z,84.76
2022-10-19T10:46:57.000Z,83.60
2022-10-19T10:47:57.000Z,83.81
2022-10-19T10:48:57.000Z,83.81
2022-10-19T10:49:57.000Z,83.09
2022-10-19T10:50:57.000Z,82.73
2022-10-19T10:51:57.000Z,83.50
2022-10-19T10:52:57.000Z,82.07
2022-10-19T10:53:57.000Z,83.40
2022-10-19T10:54:57.000Z,83.70
2022-10-19T10:55:56.000Z,83.20
2022-10-19T10:56:56.000Z,80.96
2022-10-19T10:57:56.000Z,79.94
2022-10-19T10:58:56.000Z,79.13
2022-10-19T10:59:56.000Z,79.16
2022-10-19T11:00:56.000Z,80.76
2022-10-19T11:01:56.000Z,81.77
2022-10-19T11:02:56.000Z,81.46
2022-10-19T11:03:56.000Z,81.16
2022-10-19T11:04:56.000Z,80.85
2022-10-19T11:05:56.000Z,80.76
2022-10-19T11:06:56.000Z,79.33
2022-10-19T11:07:56.000Z,80.45
2022-10-19T11:08:56.000Z,80.76
2022-10-19T11:09:56.000Z,79.63
2022-10-19T11:10:56.000Z,79.60
2022-10-19T11:11:56.000Z,80.82
2022-10-19T11:12:56.000Z,79.19
2022-10-19T11:13:56.000Z,78.17
2022-10-19T11:14:56.000Z,80.51
2022-10-19T11:15:56.000Z,81.93
2022-10-19T11:16:56.000Z,80.82
2022-10-19T11:17:56.000Z,81.23
2022-10-19T11:18:56.000Z,80.07
2022-10-19T11:19:56.000Z,81.49
2022-10-19T11:20:56.000Z,77.94
2022-10-19T11:21:56.000Z,77.22
2022-10-19T11:22:56.000Z,79.36
2022-10-19T11:23:56.000Z,79.16
2022-10-19T11:24:56.000Z,78.41
2022-10-19T11:25:56.000Z,76.48
2022-10-19T11:26:56.000Z,74.51
2022-10-19T11:27:56.000Z,74.58
2022-10-19T11:28:56.000Z,70.79
2022-10-19T11:29:56.000Z,72.01
2022-10-19T11:30:56.000Z,69.57
2022-10-19T11:31:56.000Z,68.66
2022-10-19T11:32:56.000Z,69.40
2022-10-19T11:33:56.000Z,71.64
2022-10-19T11:34:56.000Z,69.30
2022-10-19T11:35:56.000Z,70.83
2022-10-19T11:36:56.000Z,71.64
2022-10-19T11:37:56.000Z,71.84
2022-10-19T11:38:56.000Z,71.73
2022-10-19T11:39:56.000Z,70.55
2022-10-19T11:40:56.000Z,71.26
2022-10-19T11:41:56.000Z,72.11
2022-10-19T11:42:56.000Z,72.31
2022-10-19T11:43:56.000Z,73.33
2022-10-19T11:44:56.000Z,74.48
2022-10-19T11:45:56.000Z,74.48
2022-10-19T11:46:56.000Z,76.41
2022-10-19T11:47:56.000Z,77.22
2022-10-19T11:48:56.000Z,77.33
2022-10-19T11:49:56.000Z,77.43
2022-10-19T11:50:56.000Z,77.63
2022-10-19T11:51:56.000Z,77.26
2022-10-19T11:52:56.000Z,78.78
2022-10-19T11:53:56.000Z,78.38
2022-10-19T11:54:56.000Z,79.09
2022-10-19T11:55:56.000Z,78.48
2022-10-19T11:56:56.000Z,79.43
2022-10-19T11:57:56.000Z,78.72
2022-10-19T11:58:56.000Z,79.33
2022-10-19T11:59:56.000Z,78.21
2022-10-19T12:00:56.000Z,78.52
2022-10-19T12:01:56.000Z,78.86
2022-10-19T12:02:56.000Z,79.68
2022-10-19T12:03:56.000Z,79.16
2022-10-19T12:04:56.000Z,78.76
2022-10-19T12:05:56.000Z,78.15
2022-10-19T12:06:56.000Z,78.49
2022-10-19T12:07:56.000Z,79.10
2022-10-19T12:08:55.000Z,78.19
2022-10-19T12:09:55.000Z,79.30
2022-10-19T12:10:55.000Z,79.41
2022-10-19T12:11:55.000Z,78.42
2022-10-19T12:12:55.000Z,78.02
2022-10-19T12:13:55.000Z,78.42
2022-10-19T12:14:55.000Z,79.34
2022-10-19T12:15:55.000Z,80.05
2022-10-19T12:16:55.000Z,80.09
2022-10-19T12:17:55.000Z,79.17
2022-10-19T12:18:55.000Z,78.26
2022-10-19T12:19:55.000Z,79.27
2022-10-19T12:20:55.000Z,79.48
2022-10-19T12:21:55.000Z,80.19
2022-10-19T12:22:55.000Z,81.21
2022-10-19T12:23:55.000Z,80.40
2022-10-19T12:24:55.000Z,80.33
2022-10-19T12:25:55.000Z,79.41
2022-10-19T12:26:55.000Z,79.21
2022-10-19T12:27:55.000Z,79.93
2022-10-19T12:28:55.000Z,80.13
2022-10-19T12:29:55.000Z,80.54
2022-10-19T12:30:55.000Z,82.17
2022-10-19T12:31:55.000Z,82.07
2022-10-19T12:32:55.000Z,81.35
2022-10-19T12:33:55.000Z,81.04
2022-10-19T12:34:55.000Z,80.54
2022-10-19T12:35:55.000Z,80.02
2022-10-19T12:36:55.000Z,79.00